• Join FlightAware (Why Join?)
  • Login
  • US Flag 
06:46PM EDT


 

Airport Tracker/Info


-or-


 

Live Flight TrackerFlight Track Log ✈ N138CH ✈ 27-Jul-2013 ✈ KOPF - TJIG / SIG

Flight Track Log - Related Links

Times and Time Zones

All times are in EDT time to prevent confusion due to time zone crossing. See the N138CH flight status page for this flight to view local times or setup timezone preferences in your user account.

Time Position Orientation Groundspeed Altitude Reporting Facility
EDT Latitude Longitude Course Direction KTS MPH feet Rate Location/Type
07:05PM 25.9203 -80.3264 293° West 202 232 1,900  Level Miami Center
07:06PM 25.9397 -80.3778 293° West 281 323 2,600 2,820 Climbing Miami Center
07:07PM 26.0000 -80.3911 349° North 266 306 6,800 4,080 Climbing Miami Center
07:08PM 26.0103 -80.3153 81° East 296 341 10,500 3,600 Climbing Miami Center
07:08PM 26.0133 -80.2714 86° East 303 349 12,100 3,120 Climbing Miami Center
07:09PM 26.0064 -80.2111 97° East 321 369 14,000 1,920 Climbing Miami Center
07:10PM 26.0039 -80.0492 91° East 371 427 16,000 780 Climbing Miami Center
07:11PM 25.9981 -79.9219 93° East 385 443 15,900 1,020 Descending Miami Center
07:12PM 25.9944 -79.7969 92° East 397 457 18,100 2,640 Climbing Miami Center
07:13PM 25.9883 -79.6744 93° East 397 457 21,200 2,700 Climbing Miami Center
07:14PM 25.9825 -79.5517 93° East 402 463 23,500 2,220 Climbing Miami Center
07:15PM 25.9761 -79.4406 94° East 407 468 25,700 1,980 Climbing Miami Center
07:16PM 25.9617 -79.2994 96° East 407 468 27,500 1,560 Climbing Miami Center
07:17PM 25.9450 -79.1650 98° East 420 483 28,900 1,500 Climbing Miami Center
07:18PM 25.8969 -79.0394 113° Southeast 431 496 30,600 1,860 Climbing Miami Center
07:19PM 25.8422 -78.9206 117° Southeast 431 496 32,700 1,800 Climbing Miami Center
07:20PM 25.7706 -78.8111 126° Southeast 431 496 34,300 1,560 Climbing Miami Center
07:21PM 25.7283 -78.6833 110° East 431 496 35,900 1,380 Climbing Miami Center
07:22PM 25.7050 -78.5447 101° East 442 509 37,100 1,200 Climbing Miami Center
07:23PM 25.6856 -78.4036 99° East 452 520 38,300 1,320 Climbing Miami Center
07:24PM 25.6303 -78.2764 116° Southeast 452 520 39,800 1,320 Climbing Miami Center
07:25PM 25.5625 -78.1603 123° Southeast 447 514 41,000 600 Climbing Miami Center
07:26PM 25.4967 -78.0400 121° Southeast 452 520 41,000  Level Miami Center
07:27PM 25.4286 -77.9172 122° Southeast 458 527 41,000  Level Miami Center
07:28PM 25.3625 -77.7925 120° Southeast 463 533 41,000  Level Miami Center
07:29PM 25.2922 -77.6769 124° Southeast 463 533 41,000  Level Miami Center
07:30PM 25.2092 -77.5708 131° Southeast 463 533 41,000  Level Miami Center
07:31PM 25.1178 -77.4739 136° Southeast 470 541 41,000  Level Miami Center
07:32PM 25.0344 -77.3658 130° Southeast 470 541 41,000  Level Miami Center
07:33PM 24.9514 -77.2211 122° Southeast 494 568 41,000  Level Miami Center
07:34PM 24.8867 -77.1017 121° Southeast 478 550 41,000  Level Miami Center
07:35PM 24.8200 -76.9803 121° Southeast 472 543 41,000  Level Miami Center
07:36PM 24.7531 -76.8564 121° Southeast 472 543 41,000  Level Miami Center
07:37PM 24.6861 -76.7331 121° Southeast 472 543 41,000  Level Miami Center
07:38PM 24.6192 -76.6119 121° Southeast 472 543 41,000  Level Miami Center
07:39PM 24.5500 -76.4886 122° Southeast 467 537 41,000  Level Miami Center
07:40PM 24.4847 -76.3678 121° Southeast 467 537 41,000  Level Miami Center
07:41PM 24.4194 -76.2472 121° Southeast 467 537 41,000  Level Miami Center
07:42PM 24.3522 -76.1219 120° Southeast 467 537 41,000  Level Miami Center
07:43PM 24.2844 -75.9994 121° Southeast 467 537 41,000  Level Miami Center
07:44PM 24.2147 -75.8767 122° Southeast 467 537 41,000  Level Miami Center
07:45PM 24.1469 -75.7497 120° Southeast 467 537 41,000  Level Miami Center
07:46PM 24.0792 -75.6275 121° Southeast 467 537 41,000  Level Miami Center
07:47PM 24.0069 -75.5008 122° Southeast 473 544 41,000  Level Miami Center
07:48PM 23.9369 -75.3767 122° Southeast 473 544 41,000  Level Miami Center
07:49PM 23.8686 -75.2500 121° Southeast 478 550 41,000  Level Miami Center
07:50PM 23.7964 -75.1261 122° Southeast 478 550 41,000  Level Miami Center
07:51PM 23.7258 -75.0000 121° Southeast 478 550 41,000  Level Miami Center
07:52PM 23.6531 -74.8764 123° Southeast 478 550 41,000  Level Miami Center
07:53PM 23.5911 -74.7639 121° Southeast 483 556 41,000  Level Miami Center
07:54PM 23.5181 -74.6383 122° Southeast 483 556 41,000  Level Miami Center
07:55PM 23.4453 -74.5150 123° Southeast 483 556 41,000  Level Miami Center
07:56PM 23.3742 -74.3894 122° Southeast 483 556 41,000  Level Miami Center
07:57PM 23.3033 -74.2644 122° Southeast 483 556 41,000  Level Miami Center
07:58PM 23.2278 -74.1369 123° Southeast 489 563 41,000  Level Miami Center
07:59PM 23.1567 -74.0142 122° Southeast 489 563 41,000  Level Miami Center
08:00PM 23.0872 -73.8869 121° Southeast 489 563 41,000  Level Miami Center
08:01PM 23.0097 -73.7625 124° Southeast 494 568 41,000  Level Miami Center
08:02PM 22.9381 -73.6358 122° Southeast 494 568 41,000  Level Miami Center
08:03PM 22.8642 -73.5092 122° Southeast 494 568 41,000  Level Miami Center
08:04PM 22.7947 -73.3869 122° Southeast 489 563 41,000  Level Miami Center
08:05PM 22.7186 -73.2608 123° Southeast 489 563 41,000  Level Miami Center
08:06PM 22.6489 -73.1411 122° Southeast 489 563 41,000  Level Miami Center
08:07PM 22.5747 -73.0175 123° Southeast 484 557 41,000  Level Miami Center
08:08PM 22.5047 -72.8936 121° Southeast 489 563 41,000  Level Miami Center
08:09PM 22.4306 -72.7678 123° Southeast 494 568 41,000  Level Miami Center
08:10PM 22.3539 -72.6422 123° Southeast 494 568 41,000  Level Miami Center
08:11PM 22.2836 -72.5167 121° Southeast 489 563 41,000  Level Miami Center
08:12PM 22.2092 -72.3958 124° Southeast 489 563 41,000  Level Miami Center
08:13PM 22.1319 -72.2619 122° Southeast 489 563 41,000  Level Miami Center
08:14PM 22.0572 -72.1369 123° Southeast 489 563 41,000  Level Miami Center
08:15PM 21.9825 -72.0164 124° Southeast 489 563 41,000  Level Miami Center
08:16PM 21.9097 -71.8939 123° Southeast 489 563 41,000  Level Miami Center
08:17PM 21.8367 -71.7714 123° Southeast 489 563 41,000  Level Miami Center
08:18PM 21.7639 -71.6514 123° Southeast 489 563 41,000  Level Miami Center
08:19PM 21.6931 -71.5314 122° Southeast 484 557 41,000  Level Miami Center
08:20PM 21.6197 -71.4094 123° Southeast 484 557 41,000  Level Miami Center
08:21PM 21.5489 -71.2919 123° Southeast 484 557 41,000  Level Miami Center
08:22PM 21.4822 -71.1833 123° Southeast 478 550 41,000  Level Miami Center
08:23PM 21.4089 -71.0639 123° Southeast 478 550 41,000  Level Miami Center
08:24PM 21.3267 -70.9250 122° Southeast 474 545 41,000  Level Miami Center
08:25PM 21.2553 -70.8103 124° Southeast 482 555 41,000  Level Miami Center
08:26PM 21.1819 -70.6911 123° Southeast 477 549 41,000  Level Miami Center
08:27PM 21.1103 -70.5722 123° Southeast 477 549 41,000  Level Miami Center
08:28PM 21.0367 -70.4536 124° Southeast 477 549 41,000  Level Miami Center
08:29PM 20.9628 -70.3328 123° Southeast 477 549 41,000  Level Miami Center
08:30PM 20.8889 -70.2122 123° Southeast 483 556 41,000  Level Miami Center
08:31PM 20.8169 -70.0939 123° Southeast 483 556 41,000  Level Miami Center
08:32PM 20.7408 -69.9758 125° Southeast 483 556 41,000  Level Miami Center
08:33PM 20.6689 -69.8553 123° Southeast 483 556 41,000  Level Miami Center
08:34PM 20.5925 -69.7353 124° Southeast 483 556 41,000  Level Miami Center
08:35PM 20.5206 -69.6175 123° Southeast 478 550 41,000  Level Miami Center
08:36PM 20.4461 -69.4978 124° Southeast 478 550 41,000  Level Miami Center
08:37PM 20.3717 -69.3803 124° Southeast 483 556 41,000  Level Miami Center
08:38PM 20.2972 -69.2586 123° Southeast 483 556 41,000  Level Miami Center
08:39PM 20.2228 -69.1436 125° Southeast 483 556 41,000  Level Miami Center
08:40PM 20.1503 -69.0242 123° Southeast 483 556 41,000  Level Miami Center
08:41PM 20.0647 -68.8967 126° Southeast 483 556 41,000  Level Miami Center
08:42PM 20.0011 -68.7925 123° Southeast 477 549 41,000  Level Miami Center
08:43PM 19.9283 -68.6758 124° Southeast 472 543 41,000  Level Miami Center
08:44PM 19.8581 -68.5611 123° Southeast 472 543 41,000  Level Miami Center
08:45PM 19.7894 -68.4486 123° Southeast 467 537 41,000  Level Miami Center
08:46PM 19.7150 -68.3411 126° Southeast 467 537 41,000  Level Miami Center
08:47PM 19.6333 -68.2167 125° Southeast 460 529 41,000  Level San Juan Center
08:48PM 19.5667 -68.1167 125° Southeast 470 541 41,000 -900 Level San Juan Center
08:49PM 19.5000 -68.0000 121° Southeast 460 529 39,300 -1,980 Descending San Juan Center
08:50PM 19.4167 -67.8667 124° Southeast 440 506 37,100 -2,340 Descending San Juan Center
08:52PM 19.3333 -67.7667 131° Southeast 450 518 34,600 -2,520 Descending San Juan Center
08:53PM 19.2667 -67.6500 121° Southeast 460 529 32,100 -2,400 Descending San Juan Center
08:54PM 19.2167 -67.5500 118° Southeast 480 552 29,800 -2,520 Descending San Juan Center
08:55PM 19.1500 -67.4000 115° Southeast 460 529 27,100 -2,580 Descending San Juan Center
08:56PM 19.0833 -67.2833 121° Southeast 440 506 24,700 -2,400 Descending San Juan Center
08:57PM 19.0333 -67.1667 114° Southeast 430 495 22,400 -2,280 Descending San Juan Center
08:59PM 18.9167 -66.9500 120° Southeast 420 483 17,900 -2,160 Descending San Juan Center
09:00PM 18.8667 -66.8500 118° Southeast 380 437 15,900 -2,040 Descending San Juan Center
09:01PM 18.8167 -66.7500 118° Southeast 350 403 13,900 -1,860 Descending San Juan Center
09:02PM 18.7833 -66.6667 113° Southeast 330 380 12,200 -1,800 Descending San Juan Center
09:03PM 18.7333 -66.5833 122° Southeast 330 380 10,400 -1,680 Descending San Juan Center
09:04PM 18.6833 -66.5167 128° Southeast 300 345 8,900 -1,440 Descending San Juan Center
09:05PM 18.6333 -66.4500 128° Southeast 270 311 7,500 -1,440 Descending San Juan Center
09:06PM 18.5833 -66.3833 128° Southeast 270 311 6,100 -1,380 Descending San Juan Center
09:07PM 18.5500 -66.3333 125° Southeast 250 288 4,800 -1,320 Descending San Juan Center
09:08PM 18.5000 -66.2833 137° Southeast 240 276 3,500 -1,320 Descending San Juan Center
09:10PM 18.4568 -66.0981 109° East  Level Estimated
09:17PM 18.4568 -66.0981 109° East  Level Estimated
09:18PM 18.4568 -66.0981 109° East  Level Estimated
09:19PM 18.4568 -66.0981 109° East  Level Estimated
09:20PM 18.4568 -66.0981 109° East  Level Estimated
09:21PM 18.4568 -66.0981 109° East  Level Estimated
09:22PM 18.4568 -66.0981 109° East  Level Estimated
09:23PM 18.4568 -66.0981 109° East  Level Estimated
09:24PM 18.4568 -66.0981 109° East  Level Estimated
09:25PM 18.4568 -66.0981 109° East  Level Estimated
09:26PM 18.4568 -66.0981 109° East  Level Estimated
09:27PM 18.4568 -66.0981 109° East  Level Estimated
09:28PM 18.4568 -66.0981 109° East  Level Estimated
09:29PM 18.4568 -66.0981 109° East  Level Estimated